Time;durP1;ratioP1;P1;durP2;ratioP2;P2;SDS_P1;SDS_P2;PMS_P1;PMS_P2;Temp;Humidity;BMP_temperature;BMP_pressure;BME280_temperature;BME280_humidity;BME280_pressure;Samples;Min_cycle;Max_cycle;Signal;HPM_P1;HPM_P2
2022/01/26 00:06:33;;;;;;;36.70;15.53;;;;;;;3.89;77.61;102225.84;5117611;27;20280;-62
2022/01/26 00:09:03;;;;;;;33.57;15.07;;;;;;;4.21;76.99;102234.19;5121060;28;20215;-63
2022/01/26 00:11:31;;;;;;;34.60;14.07;;;;;;;4.21;76.68;102242.91;5129195;28;20208;-62
2022/01/26 00:14:01;;;;;;;36.33;14.23;;;;;;;3.97;77.09;102236.88;5129921;28;20736;-62
2022/01/26 00:16:37;;;;;;;35.57;15.27;;;;;;;4.13;77.02;102234.50;5116747;27;20589;-63
2022/01/26 00:19:07;;;;;;;37.17;15.67;;;;;;;3.97;77.66;102225.53;5131091;27;20229;-63
2022/01/26 00:21:38;;;;;;;38.83;15.83;;;;;;;4.10;77.14;102230.22;5131318;27;20222;-64
2022/01/26 00:24:25;;;;;;;33.90;14.27;;;;;;;4.13;77.06;102226.63;5122044;27;20693;-63
2022/01/26 00:29:48;;;;;;;31.43;13.50;;;;;;;4.04;77.19;102220.00;5112400;27;20209;-62
2022/01/26 00:40:37;;;;;;;33.07;14.17;;;;;;;3.97;77.49;102223.75;5131509;27;20224;-63
2022/01/26 00:43:14;;;;;;;36.50;14.47;;;;;;;3.91;77.95;102220.53;5129700;27;20566;-62
2022/01/26 00:45:42;;;;;;;33.83;13.43;;;;;;;3.47;79.68;102219.69;5130753;27;20235;-61
2022/01/26 00:48:11;;;;;;;35.53;14.47;;;;;;;3.74;78.32;102216.00;5117713;27;20208;-62
2022/01/26 00:50:40;;;;;;;33.60;13.57;;;;;;;3.77;78.08;102215.88;5132391;27;20247;-62
2022/01/26 00:53:08;;;;;;;30.50;12.90;;;;;;;3.96;76.97;102227.31;5129555;27;20215;-64
2022/01/26 00:55:38;;;;;;;33.00;12.80;;;;;;;3.95;76.79;102220.38;5130311;27;20715;-63
2022/01/26 00:58:05;;;;;;;31.70;13.03;;;;;;;4.04;76.83;102214.75;5130659;27;20653;-64
2022/01/26 01:00:33;;;;;;;31.63;14.47;;;;;;;3.83;77.26;102209.50;5133424;27;20244;-63
2022/01/26 01:03:02;;;;;;;31.80;13.73;;;;;;;3.73;78.47;102219.53;5132794;27;20255;-61
2022/01/26 01:05:35;;;;;;;28.47;12.10;;;;;;;3.61;78.57;102209.50;5120715;27;20724;-63
2022/01/26 01:08:07;;;;;;;26.27;10.40;;;;;;;3.92;77.15;102220.50;5120797;27;20217;-62
2022/01/26 01:10:35;;;;;;;23.80;10.80;;;;;;;4.05;76.56;102221.66;5119306;27;20211;-62
2022/01/26 01:13:07;;;;;;;24.60;10.93;;;;;;;3.84;77.34;102222.56;5130166;27;20295;-62
2022/01/26 01:15:35;;;;;;;21.43;9.83;;;;;;;3.82;77.00;102223.53;5133156;27;20209;-62
2022/01/26 01:18:10;;;;;;;22.50;9.87;;;;;;;3.75;77.52;102225.56;5132402;27;20791;-62
2022/01/26 01:21:07;;;;;;;21.63;9.47;;;;;;;3.59;77.76;102221.84;5130073;27;20207;-62
2022/01/26 01:26:49;;;;;;;17.20;7.70;;;;;;;3.30;78.84;102236.94;5088950;27;20646;-62
2022/01/26 01:29:22;;;;;;;15.53;6.63;;;;;;;3.46;78.42;102239.84;5127329;27;20508;-62
2022/01/26 01:31:54;;;;;;;16.60;8.13;;;;;;;3.51;78.27;102245.78;5130568;27;20678;-62
2022/01/26 01:34:25;;;;;;;16.33;7.20;;;;;;;3.43;78.44;102246.97;5132687;27;20303;-62
2022/01/26 01:36:54;;;;;;;15.77;6.87;;;;;;;3.74;77.21;102247.47;5131169;27;20266;-63
2022/01/26 01:39:23;;;;;;;16.57;7.27;;;;;;;3.19;79.01;102249.59;5131493;27;20217;-63
2022/01/26 01:41:52;;;;;;;15.17;6.80;;;;;;;3.27;78.89;102252.78;5129889;27;20676;-63
2022/01/26 01:44:21;;;;;;;17.93;7.77;;;;;;;3.67;77.81;102261.75;5123985;27;20698;-63
2022/01/26 01:46:50;;;;;;;16.33;7.80;;;;;;;3.88;76.33;102260.88;5131076;27;20201;-63
2022/01/26 01:49:18;;;;;;;14.83;7.00;;;;;;;3.33;78.69;102260.44;5131816;27;20671;-63
2022/01/26 01:51:50;;;;;;;15.43;7.47;;;;;;;3.75;76.99;102259.69;5119781;27;20220;-63
2022/01/26 01:54:19;;;;;;;15.07;7.17;;;;;;;3.73;76.96;102261.50;5117459;27;20209;-63
2022/01/26 01:56:54;;;;;;;15.23;7.50;;;;;;;3.92;76.37;102261.63;5120655;27;20232;-63
2022/01/26 01:59:23;;;;;;;14.33;6.60;;;;;;;4.04;75.55;102264.63;5131833;27;20210;-62
2022/01/26 02:01:51;;;;;;;12.47;6.27;;;;;;;3.79;76.20;102259.47;5130787;27;20271;-63
2022/01/26 02:04:19;;;;;;;12.97;6.97;;;;;;;3.68;76.35;102258.22;5129654;27;20627;-63
2022/01/26 02:06:47;;;;;;;11.47;5.77;;;;;;;3.47;77.19;102261.66;5129386;27;20667;-63
2022/01/26 02:09:15;;;;;;;12.37;6.17;;;;;;;3.64;76.83;102252.22;5130372;27;20216;-63
2022/01/26 02:11:47;;;;;;;11.77;5.97;;;;;;;3.70;77.15;102251.13;5130884;27;20307;-63
2022/01/26 02:14:23;;;;;;;13.50;6.77;;;;;;;3.67;76.99;102259.13;5131952;27;20291;-63
2022/01/26 02:17:00;;;;;;;12.87;6.53;;;;;;;3.68;76.15;102261.72;5130268;27;20227;-63
2022/01/26 02:53:20;;;;;;;22.17;9.27;;;;;;;3.82;76.31;102234.03;5128670;27;20686;-63
2022/01/26 02:55:53;;;;;;;21.83;9.33;;;;;;;3.86;75.97;102230.38;5129594;27;20281;-63
2022/01/26 03:01:36;;;;;;;22.90;9.33;;;;;;;3.55;76.56;102226.34;5148558;27;21079;-63
2022/01/26 03:04:11;;;;;;;17.30;8.37;;;;;;;3.46;77.86;102234.59;5142098;27;20223;-64
2022/01/26 03:06:45;;;;;;;15.70;6.80;;;;;;;3.47;77.27;102227.56;5148797;27;20201;-63
2022/01/26 03:09:18;;;;;;;12.93;6.57;;;;;;;3.50;77.21;102222.22;5150171;27;20585;-63
2022/01/26 03:11:48;;;;;;;14.67;6.60;;;;;;;3.13;78.48;102213.16;5148686;27;20711;-63
2022/01/26 03:14:25;;;;;;;19.73;7.17;;;;;;;3.26;78.66;102209.13;5147135;27;20226;-63
2022/01/26 03:16:58;;;;;;;12.73;5.90;;;;;;;3.32;77.92;102208.91;5163368;27;20697;-64
2022/01/26 03:19:34;;;;;;;14.03;6.37;;;;;;;3.38;77.81;102211.28;5141182;27;20696;-63
2022/01/26 03:30:47;;;;;;;14.70;6.40;;;;;;;3.45;77.95;102213.66;5123114;27;20210;-63
2022/01/26 03:33:35;;;;;;;13.37;6.23;;;;;;;3.61;76.91;102206.88;5126396;27;20218;-63
2022/01/26 03:36:11;;;;;;;16.47;7.17;;;;;;;3.45;77.45;102208.41;5121030;27;20219;-63
2022/01/26 03:38:42;;;;;;;12.93;6.13;;;;;;;3.58;76.48;102205.25;5127252;28;20293;-62
2022/01/26 03:41:16;;;;;;;16.23;7.57;;;;;;;3.54;77.02;102205.44;5127144;27;20250;-64
2022/01/26 03:43:44;;;;;;;13.63;6.63;;;;;;;3.77;76.23;102203.59;5126707;27;20204;-62
2022/01/26 03:46:12;;;;;;;16.53;7.23;;;;;;;3.42;77.92;102208.56;5128274;27;20270;-63
2022/01/26 03:48:41;;;;;;;15.37;7.50;;;;;;;3.64;77.15;102209.41;5128279;27;20625;-63
2022/01/26 03:51:09;;;;;;;19.63;7.90;;;;;;;3.72;76.68;102215.19;5125763;27;20689;-62
2022/01/26 03:53:36;;;;;;;17.33;8.03;;;;;;;3.46;77.86;102220.63;5126384;27;20214;-63
2022/01/26 03:56:05;;;;;;;22.87;9.80;;;;;;;3.33;78.14;102221.13;5140613;27;20297;-62
2022/01/26 03:58:32;;;;;;;20.10;9.27;;;;;;;3.36;78.92;102209.63;5129256;27;20208;-63
2022/01/26 04:01:00;;;;;;;23.43;9.30;;;;;;;3.44;78.85;102217.19;5123422;27;20258;-63
2022/01/26 04:03:28;;;;;;;21.57;10.47;;;;;;;3.45;78.69;102208.41;5112577;27;20319;-63
2022/01/26 04:05:57;;;;;;;23.87;9.93;;;;;;;3.15;79.88;102215.72;5126175;27;20224;-65
2022/01/26 04:08:28;;;;;;;22.03;10.23;;;;;;;3.40;79.43;102205.97;5127297;27;20245;-62
2022/01/26 04:11:08;;;;;;;19.70;9.43;;;;;;;3.09;80.31;102201.06;5121441;27;20283;-62
2022/01/26 04:13:36;;;;;;;21.83;9.70;;;;;;;3.36;79.95;102210.47;5111641;28;20219;-62
2022/01/26 04:16:05;;;;;;;23.30;10.33;;;;;;;3.50;79.45;102209.09;5112991;27;20213;-62
2022/01/26 04:18:36;;;;;;;21.67;9.70;;;;;;;3.15;79.60;102208.72;5112748;28;20209;-62
2022/01/26 04:21:14;;;;;;;21.60;9.30;;;;;;;3.21;80.58;102205.84;5113367;27;20238;-62
2022/01/26 04:23:48;;;;;;;19.93;9.50;;;;;;;3.31;79.19;102208.97;5108180;28;20219;-63
2022/01/26 04:26:23;;;;;;;21.60;9.90;;;;;;;3.64;78.22;102225.13;5114189;27;20245;-63
2022/01/26 04:28:55;;;;;;;21.67;10.03;;;;;;;3.55;77.95;102215.88;5111447;28;20728;-62
2022/01/26 04:31:23;;;;;;;22.20;9.67;;;;;;;3.61;77.25;102226.09;5111452;28;20303;-63
2022/01/26 04:33:51;;;;;;;20.83;9.43;;;;;;;3.30;78.58;102222.97;5113407;27;20662;-63
2022/01/26 04:36:27;;;;;;;22.13;9.87;;;;;;;3.63;77.63;102216.41;5112847;27;20319;-65
2022/01/26 04:38:59;;;;;;;23.37;10.40;;;;;;;3.47;77.57;102212.69;5113568;28;20208;-63
2022/01/26 04:41:33;;;;;;;22.87;9.43;;;;;;;3.60;77.48;102213.94;5113348;28;20663;-63
2022/01/26 04:44:06;;;;;;;20.77;9.70;;;;;;;3.67;77.05;102214.53;5113317;27;20211;-64
2022/01/26 04:46:34;;;;;;;22.20;10.07;;;;;;;3.43;77.70;102218.13;5114552;28;20688;-64
2022/01/26 04:49:02;;;;;;;25.97;10.70;;;;;;;3.12;79.81;102211.44;5116432;27;20672;-62
2022/01/26 04:51:31;;;;;;;25.17;10.17;;;;;;;3.24;79.19;102210.13;5111736;28;20523;-64
2022/01/26 04:53:59;;;;;;;25.30;11.17;;;;;;;3.48;78.17;102205.69;5118805;27;20231;-62
2022/01/26 04:56:27;;;;;;;24.33;10.33;;;;;;;3.29;78.66;102203.78;5125231;27;20256;-63
2022/01/26 04:58:55;;;;;;;21.23;9.90;;;;;;;3.30;78.66;102208.09;5113877;28;20239;-63
2022/01/26 05:01:23;;;;;;;21.23;9.90;;;;;;;3.36;78.52;102200.00;5114224;27;20254;-63
2022/01/26 05:03:51;;;;;;;19.67;9.30;;;;;;;3.41;78.85;102194.59;5110637;28;20220;-64
2022/01/26 05:06:19;;;;;;;22.80;10.10;;;;;;;3.47;78.29;102203.97;5112901;27;20224;-62
2022/01/26 05:08:48;;;;;;;21.00;9.47;;;;;;;3.27;78.27;102197.72;5111005;28;20216;-66
2022/01/26 05:11:24;;;;;;;20.40;9.07;;;;;;;2.91;80.67;102188.66;5113419;28;20222;-62
2022/01/26 05:13:57;;;;;;;23.27;9.43;;;;;;;3.25;79.45;102194.34;5112382;28;20290;-63
2022/01/26 05:16:24;;;;;;;20.73;9.40;;;;;;;3.31;78.98;102186.22;5112861;28;20693;-61
2022/01/26 05:18:53;;;;;;;21.00;9.00;;;;;;;3.53;78.35;102177.47;5111651;27;20235;-68
2022/01/26 05:21:21;;;;;;;21.47;9.70;;;;;;;3.54;77.87;102173.94;5112829;27;20324;-62
2022/01/26 05:23:51;;;;;;;21.13;8.50;;;;;;;3.16;78.86;102176.34;5109795;28;20216;-62
2022/01/26 05:26:19;;;;;;;21.77;9.73;;;;;;;3.55;77.94;102167.78;5108583;27;20228;-63
2022/01/26 05:28:46;;;;;;;19.60;9.27;;;;;;;3.27;79.23;102168.88;5112917;27;20667;-65
2022/01/26 05:31:14;;;;;;;19.20;9.20;;;;;;;3.24;79.40;102174.28;5109786;27;20223;-63
2022/01/26 05:33:43;;;;;;;19.67;8.40;;;;;;;3.25;79.37;102185.63;5111575;27;20246;-62
2022/01/26 05:36:11;;;;;;;16.43;7.90;;;;;;;3.38;79.03;102177.19;5096670;28;20250;-61
2022/01/26 05:38:39;;;;;;;18.63;8.60;;;;;;;3.26;78.75;102176.81;5112056;27;20211;-63
2022/01/26 05:41:09;;;;;;;22.57;8.60;;;;;;;3.47;78.03;102183.00;5112797;27;20228;-62
2022/01/26 05:43:37;;;;;;;19.03;8.40;;;;;;;3.58;77.79;102175.56;5102991;28;20257;-62
2022/01/26 05:46:09;;;;;;;19.90;9.30;;;;;;;3.28;78.69;102181.09;5099830;28;20662;-62
2022/01/26 05:48:42;;;;;;;19.80;9.00;;;;;;;3.63;77.88;102177.06;5110326;28;20238;-63
2022/01/26 05:51:11;;;;;;;20.00;8.20;;;;;;;3.29;78.45;102177.56;5111689;28;20300;-63
2022/01/26 05:53:40;;;;;;;20.13;8.33;;;;;;;3.34;78.61;102170.34;5108686;28;20276;-63
2022/01/26 05:56:09;;;;;;;16.77;7.17;;;;;;;3.31;79.20;102175.72;5110281;27;20311;-62
2022/01/26 05:58:37;;;;;;;18.70;8.60;;;;;;;3.63;77.64;102178.81;5109115;28;20535;-62
2022/01/26 06:01:06;;;;;;;19.00;8.00;;;;;;;3.29;78.19;102166.22;5110108;28;20240;-63
2022/01/26 06:03:34;;;;;;;17.27;7.80;;;;;;;3.07;79.20;102165.34;5110637;28;20303;-63
2022/01/26 06:06:02;;;;;;;18.47;8.00;;;;;;;3.33;79.00;102171.28;5109853;28;20265;-62
2022/01/26 06:08:30;;;;;;;19.03;8.57;;;;;;;3.46;77.49;102168.16;5111495;28;20242;-62
2022/01/26 06:10:59;;;;;;;19.27;7.83;;;;;;;3.52;76.85;102158.25;5110442;28;20623;-63
2022/01/26 06:13:28;;;;;;;14.20;6.10;;;;;;;3.35;77.65;102171.19;5110186;28;20247;-63
2022/01/26 06:15:56;;;;;;;13.80;6.90;;;;;;;3.03;79.01;102167.22;5112677;27;20238;-63
2022/01/26 06:18:24;;;;;;;14.27;6.47;;;;;;;3.33;78.08;102173.91;5109527;28;20216;-63
2022/01/26 06:20:52;;;;;;;20.53;8.10;;;;;;;3.61;77.05;102170.16;5109165;28;20243;-61
2022/01/26 06:23:24;;;;;;;14.70;7.33;;;;;;;3.44;76.97;102169.97;5109821;28;20237;-63
2022/01/26 06:25:54;;;;;;;13.93;7.17;;;;;;;3.46;76.83;102169.00;5110631;28;20250;-63
2022/01/26 06:28:23;;;;;;;19.63;7.33;;;;;;;3.31;77.86;102170.50;5107831;28;20240;-64
2022/01/26 06:30:58;;;;;;;16.60;7.03;;;;;;;3.36;75.89;102189.50;5109706;28;20240;-63
2022/01/26 06:33:27;;;;;;;15.83;6.63;;;;;;;3.56;76.23;102196.59;5108039;28;20211;-63
2022/01/26 06:35:57;;;;;;;14.77;6.53;;;;;;;3.54;75.84;102198.41;5108917;28;20303;-63
2022/01/26 06:38:25;;;;;;;17.37;6.97;;;;;;;3.51;75.96;102198.56;5110595;28;20211;-62
2022/01/26 06:40:53;;;;;;;13.27;6.00;;;;;;;3.51;76.00;102197.69;5111131;28;20240;-63
2022/01/26 06:43:23;;;;;;;13.17;6.10;;;;;;;3.38;76.84;102192.94;5109960;28;20300;-63
2022/01/26 06:45:56;;;;;;;12.80;6.30;;;;;;;3.39;76.32;102199.88;5111046;28;20231;-64
2022/01/26 06:48:47;;;;;;;11.30;5.43;;;;;;;3.44;75.69;102212.81;5111647;28;20233;-63
2022/01/26 06:51:15;;;;;;;15.00;5.90;;;;;;;3.27;76.51;102216.09;5113148;28;20239;-63
2022/01/26 06:53:43;;;;;;;11.60;5.90;;;;;;;3.27;76.02;102221.31;5109915;28;20218;-63
2022/01/26 06:56:12;;;;;;;12.70;5.87;;;;;;;3.43;76.21;102216.34;5112566;28;20303;-62
2022/01/26 06:58:40;;;;;;;11.90;5.57;;;;;;;3.12;76.81;102223.69;5110578;28;20220;-62
2022/01/26 07:01:08;;;;;;;13.30;5.97;;;;;;;3.50;75.52;102225.69;5108616;28;20706;-62
2022/01/26 07:03:37;;;;;;;15.43;5.70;;;;;;;3.29;75.89;102239.63;5110945;28;20275;-62
2022/01/26 07:06:05;;;;;;;12.77;5.80;;;;;;;3.49;75.59;102251.97;5111492;28;20226;-62
2022/01/26 07:08:33;;;;;;;13.10;6.00;;;;;;;3.58;74.75;102244.59;5111021;28;20294;-62
2022/01/26 07:11:01;;;;;;;19.37;6.43;;;;;;;3.31;75.58;102246.53;5109938;28;20234;-63
2022/01/26 07:13:29;;;;;;;11.63;5.10;;;;;;;3.57;74.96;102250.78;5109743;28;20295;-62
2022/01/26 07:21:29;;;;;;;11.80;5.03;;;;;;;3.70;73.43;102256.38;5111373;28;20311;-63
2022/01/26 07:23:59;;;;;;;10.00;5.10;;;;;;;3.28;74.39;102254.50;5107820;28;20662;-64
2022/01/26 07:26:29;;;;;;;11.63;5.40;;;;;;;3.61;74.17;102272.47;5107391;28;20331;-63
2022/01/26 07:28:58;;;;;;;10.37;4.73;;;;;;;3.62;74.11;102282.06;5109444;28;20207;-63
2022/01/26 07:31:26;;;;;;;11.20;5.00;;;;;;;3.43;74.46;102274.03;5111069;28;20296;-63
2022/01/26 07:33:57;;;;;;;12.00;5.83;;;;;;;3.29;74.60;102276.34;5093880;28;20200;-63
2022/01/26 07:36:25;;;;;;;12.00;5.60;;;;;;;3.12;75.47;102274.34;5110682;28;20208;-63
2022/01/26 07:38:55;;;;;;;16.53;5.27;;;;;;;3.59;74.32;102277.81;5098699;28;20320;-63
2022/01/26 07:41:23;;;;;;;14.03;5.50;;;;;;;3.67;73.90;102277.50;5102399;28;20214;-64
2022/01/26 07:43:51;;;;;;;13.07;5.53;;;;;;;3.45;74.27;102260.88;5109717;28;20624;-63
2022/01/26 07:46:19;;;;;;;12.17;5.87;;;;;;;3.17;75.33;102271.53;5093086;28;20665;-63
2022/01/26 07:48:47;;;;;;;11.50;4.67;;;;;;;3.24;75.26;102276.53;5113358;28;20751;-63
2022/01/26 07:51:16;;;;;;;11.37;5.47;;;;;;;3.69;73.93;102281.75;5113455;28;20246;-64
2022/01/26 07:53:44;;;;;;;10.83;5.50;;;;;;;3.68;73.56;102272.19;5115569;27;20244;-64
2022/01/26 07:56:12;;;;;;;9.87;4.33;;;;;;;3.69;73.67;102275.69;5113917;28;20213;-63
2022/01/26 07:58:41;;;;;;;11.20;5.40;;;;;;;3.66;73.21;102275.78;5115011;28;20242;-63
2022/01/26 08:01:09;;;;;;;11.73;5.10;;;;;;;3.42;73.89;102277.59;5113007;28;20697;-63
2022/01/26 08:03:37;;;;;;;8.40;4.30;;;;;;;3.12;74.55;102276.97;5112727;28;20689;-63
2022/01/26 08:06:06;;;;;;;8.63;4.33;;;;;;;3.35;74.74;102261.22;5114183;28;20216;-63
2022/01/26 08:08:35;;;;;;;8.97;4.37;;;;;;;3.42;74.09;102268.88;5113507;28;20228;-63
2022/01/26 08:11:03;;;;;;;9.70;4.93;;;;;;;3.17;74.20;102255.81;5114653;28;20314;-63
2022/01/26 08:13:30;;;;;;;7.70;4.10;;;;;;;3.21;74.01;102266.16;5113747;28;20292;-63
2022/01/26 08:15:58;;;;;;;8.97;4.30;;;;;;;3.07;74.73;102276.31;5115306;27;20225;-63
2022/01/26 08:18:26;;;;;;;12.93;4.73;;;;;;;3.27;74.13;102270.28;5112685;27;20208;-63
2022/01/26 08:20:54;;;;;;;7.93;4.37;;;;;;;3.48;73.73;102266.00;5113695;28;20228;-63
2022/01/26 08:23:22;;;;;;;15.87;5.83;;;;;;;3.49;73.53;102260.72;5113116;28;20227;-63
2022/01/26 08:25:51;;;;;;;9.87;5.20;;;;;;;3.33;73.94;102265.69;5114071;28;20320;-63
2022/01/26 08:28:25;;;;;;;11.90;5.37;;;;;;;3.49;74.10;102252.84;5109126;28;20265;-62
2022/01/26 08:30:53;;;;;;;12.97;7.03;;;;;;;3.49;74.07;102241.50;5111957;28;20289;-62
2022/01/26 08:33:21;;;;;;;12.13;6.33;;;;;;;3.41;74.62;102226.06;5111105;27;20204;-62
2022/01/26 08:35:49;;;;;;;11.90;5.80;;;;;;;3.73;73.01;102216.91;5112613;28;20627;-62
2022/01/26 08:38:17;;;;;;;14.30;6.70;;;;;;;3.70;73.09;102219.63;5114690;27;20208;-62
2022/01/26 08:40:47;;;;;;;13.03;6.33;;;;;;;3.48;73.74;102231.91;5112445;28;20216;-62
2022/01/26 08:43:17;;;;;;;12.77;6.33;;;;;;;3.46;73.85;102241.59;5114894;27;20220;-62
2022/01/26 08:45:45;;;;;;;13.87;5.83;;;;;;;3.21;74.34;102242.53;5121754;27;20218;-63
2022/01/26 08:48:13;;;;;;;15.47;6.00;;;;;;;3.43;73.93;102246.97;5113689;28;20568;-62
2022/01/26 08:50:40;;;;;;;11.20;5.93;;;;;;;3.56;72.99;102237.72;5099727;28;20244;-63
2022/01/26 08:53:08;;;;;;;14.00;6.47;;;;;;;3.47;73.88;102251.19;5107304;28;20290;-62
2022/01/26 08:55:36;;;;;;;13.03;5.97;;;;;;;3.00;75.43;102269.53;5112914;28;20938;-63
2022/01/26 08:58:04;;;;;;;10.30;5.27;;;;;;;3.01;75.54;102260.78;5115287;27;20216;-62
2022/01/26 09:00:35;;;;;;;12.87;6.27;;;;;;;3.39;73.96;102246.22;5111677;28;20379;-63
2022/01/26 09:03:14;;;;;;;12.50;6.20;;;;;;;3.43;73.52;102255.69;5110694;28;20260;-63
2022/01/26 09:05:42;;;;;;;10.33;5.23;;;;;;;3.45;73.32;102247.75;5111712;28;20207;-63
2022/01/26 09:08:10;;;;;;;10.17;5.50;;;;;;;3.33;74.03;102252.59;5111638;27;20243;-63
2022/01/26 09:10:39;;;;;;;12.57;6.07;;;;;;;3.21;74.46;102237.31;5109129;28;20204;-62
2022/01/26 09:13:07;;;;;;;12.23;5.80;;;;;;;3.56;73.46;102248.19;5104375;28;20243;-62
2022/01/26 09:15:38;;;;;;;15.53;6.80;;;;;;;3.40;73.72;102245.31;5112452;27;20207;-62
2022/01/26 09:18:08;;;;;;;14.17;6.37;;;;;;;3.42;73.06;102238.25;5111352;28;20204;-62
2022/01/26 09:20:38;;;;;;;13.60;6.60;;;;;;;3.42;73.29;102261.00;5111308;28;20219;-62
2022/01/26 09:23:05;;;;;;;15.20;6.93;;;;;;;3.03;74.70;102243.22;5109441;28;20364;-62
2022/01/26 09:25:35;;;;;;;14.40;7.17;;;;;;;2.84;75.46;102239.56;5131131;27;20280;-63
2022/01/26 09:28:03;;;;;;;16.43;6.97;;;;;;;3.02;75.39;102242.38;5115183;28;20216;-62
2022/01/26 09:30:44;;;;;;;14.83;7.20;;;;;;;3.30;74.03;102246.59;5111733;28;20298;-62
2022/01/26 09:33:14;;;;;;;15.13;7.20;;;;;;;2.71;75.81;102268.00;5110360;27;20208;-61
2022/01/26 09:35:41;;;;;;;17.63;6.97;;;;;;;2.94;75.46;102254.91;5111474;28;20292;-61
2022/01/26 09:38:14;;;;;;;16.03;7.33;;;;;;;3.19;74.41;102259.25;5112371;28;20232;-62
2022/01/26 09:40:42;;;;;;;12.47;6.43;;;;;;;3.45;73.10;102266.13;5111561;28;20808;-62
2022/01/26 09:43:11;;;;;;;14.57;6.50;;;;;;;3.25;73.77;102253.78;5109453;28;20233;-62
2022/01/26 09:45:40;;;;;;;12.63;6.37;;;;;;;3.05;74.34;102272.88;5105547;28;20213;-62
2022/01/26 09:48:09;;;;;;;12.97;5.83;;;;;;;3.04;74.68;102289.50;5111877;28;20213;-63
2022/01/26 09:50:54;;;;;;;12.87;6.20;;;;;;;3.30;73.60;102307.75;5112434;28;20302;-63
2022/01/26 09:53:27;;;;;;;11.70;5.80;;;;;;;3.34;73.06;102325.06;5110327;28;20868;-64
2022/01/26 09:55:55;;;;;;;11.03;5.10;;;;;;;3.00;73.88;102321.97;5112724;27;20697;-62
2022/01/26 09:58:23;;;;;;;13.07;6.07;;;;;;;3.06;73.66;102321.78;5108935;28;20874;-63
2022/01/26 10:00:59;;;;;;;10.60;5.43;;;;;;;3.09;73.85;102313.78;5109805;28;20227;-64
2022/01/26 10:03:33;;;;;;;13.30;6.37;;;;;;;3.00;74.35;102314.09;5110503;27;20585;-63
2022/01/26 10:06:04;;;;;;;11.40;5.43;;;;;;;3.22;74.66;102315.06;5095205;28;20292;-62
2022/01/26 10:08:59;;;;;;;12.93;6.20;;;;;;;3.23;74.03;102323.78;5110731;28;20217;-63
2022/01/26 10:19:55;;;;;;;12.60;6.33;;;;;;;3.06;74.10;102311.28;5110284;28;20217;-63
2022/01/26 10:22:27;;;;;;;15.33;6.47;;;;;;;3.48;73.36;102307.97;5110249;27;20208;-63
2022/01/26 10:25:07;;;;;;;16.33;6.40;;;;;;;3.21;73.65;102312.47;5111301;28;20312;-63
2022/01/26 10:27:55;;;;;;;18.23;8.03;;;;;;;3.14;74.20;102309.25;5096119;28;20300;-63
2022/01/26 10:30:22;;;;;;;15.77;6.73;;;;;;;3.37;73.51;102305.75;5112355;28;20557;-64
2022/01/26 10:32:52;;;;;;;14.43;7.53;;;;;;;3.19;72.88;102302.03;5109455;28;20295;-63
2022/01/26 10:35:19;;;;;;;16.43;7.97;;;;;;;3.51;72.59;102307.88;5111705;27;20311;-62
2022/01/26 10:37:52;;;;;;;17.33;8.13;;;;;;;3.24;72.94;102321.09;5106498;28;20204;-63
2022/01/26 10:40:23;;;;;;;16.27;7.93;;;;;;;3.35;73.00;102313.66;5109732;28;20556;-64
2022/01/26 10:42:59;;;;;;;16.30;7.70;;;;;;;3.45;72.99;102289.72;5110089;28;20698;-64
2022/01/26 10:45:44;;;;;;;14.20;7.10;;;;;;;3.13;73.59;102302.28;5110273;28;20217;-63
2022/01/26 10:48:25;;;;;;;15.60;7.20;;;;;;;3.33;73.44;102286.69;5110202;28;20211;-63
2022/01/26 10:54:09;;;;;;;14.37;7.77;;;;;;;3.15;74.97;102286.50;5109911;28;20562;-62
2022/01/26 10:56:38;;;;;;;14.13;7.03;;;;;;;3.18;74.65;102307.34;5107047;28;20218;-63
2022/01/26 10:59:06;;;;;;;14.77;7.70;;;;;;;3.31;74.29;102306.84;5099130;28;20299;-65
2022/01/26 11:01:37;;;;;;;15.13;7.70;;;;;;;3.22;74.77;102293.22;5110368;28;20862;-63
2022/01/26 11:04:07;;;;;;;13.13;6.67;;;;;;;3.45;74.41;102282.72;5110950;28;20230;-62
2022/01/26 11:06:36;;;;;;;15.73;7.47;;;;;;;3.24;74.49;102273.06;5104738;28;20219;-63
2022/01/26 11:09:11;;;;;;;16.13;7.57;;;;;;;3.23;74.41;102277.44;5107398;28;20303;-64
2022/01/26 11:11:40;;;;;;;15.30;7.60;;;;;;;3.54;73.31;102278.88;5109997;28;20211;-63
2022/01/26 11:14:16;;;;;;;14.67;7.37;;;;;;;3.38;73.73;102282.09;5109444;28;20236;-63
2022/01/26 11:16:53;;;;;;;15.70;7.33;;;;;;;3.71;73.17;102294.81;5111898;28;20286;-65
2022/01/26 11:19:23;;;;;;;11.87;6.13;;;;;;;3.40;73.20;102289.91;5110850;28;20209;-63
2022/01/26 11:21:51;;;;;;;14.13;6.77;;;;;;;3.27;73.76;102281.63;5110210;28;20589;-62
2022/01/26 11:24:44;;;;;;;12.90;6.50;;;;;;;3.32;73.55;102271.84;5106283;28;20583;-64
2022/01/26 11:27:12;;;;;;;17.47;6.20;;;;;;;3.47;73.64;102282.66;5114523;28;20291;-65
2022/01/26 11:29:44;;;;;;;16.03;6.87;;;;;;;3.82;72.35;102282.13;5115708;27;20236;-64
2022/01/26 11:32:19;;;;;;;18.03;7.37;;;;;;;3.72;72.43;102286.03;5114242;28;20701;-64
2022/01/26 11:34:53;;;;;;;11.33;6.30;;;;;;;3.56;73.13;102280.53;5101009;28;20233;-64
2022/01/26 11:37:36;;;;;;;15.27;6.67;;;;;;;3.54;73.42;102278.88;5103415;28;20209;-64
2022/01/26 11:45:35;;;;;;;15.43;6.30;;;;;;;3.94;72.51;102275.56;5114377;28;20240;-64
2022/01/26 11:48:09;;;;;;;14.00;6.63;;;;;;;3.94;72.05;102279.03;5097593;28;20689;-64
2022/01/26 11:50:42;;;;;;;13.20;6.77;;;;;;;3.89;71.97;102285.38;5114363;28;20605;-63
2022/01/26 11:53:12;;;;;;;15.17;6.73;;;;;;;3.65;71.83;102284.56;5113593;28;20641;-63
2022/01/26 11:55:42;;;;;;;14.00;6.57;;;;;;;3.20;72.65;102266.19;5113692;27;20213;-64
2022/01/26 11:58:14;;;;;;;13.33;6.70;;;;;;;3.13;73.16;102275.22;5114046;27;20680;-63
2022/01/26 12:00:49;;;;;;;12.57;6.30;;;;;;;3.54;71.97;102265.75;5114699;28;20320;-64
2022/01/26 12:03:30;;;;;;;12.43;5.83;;;;;;;3.50;71.36;102266.81;5131992;27;20210;-62
2022/01/26 12:06:01;;;;;;;13.03;5.80;;;;;;;3.45;71.85;102272.22;5100530;28;20234;-61
2022/01/26 12:08:34;;;;;;;11.53;5.30;;;;;;;3.40;71.29;102272.41;5109798;28;20212;-64
2022/01/26 12:11:03;;;;;;;12.47;6.47;;;;;;;3.49;71.36;102258.09;5112606;27;20663;-64
2022/01/26 12:13:32;;;;;;;12.87;6.20;;;;;;;3.47;71.13;102264.28;5112639;28;20841;-62
2022/01/26 12:16:07;;;;;;;12.00;6.00;;;;;;;3.47;71.07;102269.53;5114785;28;20238;-63
2022/01/26 12:18:41;;;;;;;11.57;5.77;;;;;;;3.41;71.60;102268.03;5114483;28;20212;-64
2022/01/26 12:35:35;;;;;;;11.23;5.77;;;;;;;3.85;69.84;102268.06;5112371;28;20299;-63
2022/01/26 12:38:10;;;;;;;13.50;6.23;;;;;;;3.71;70.30;102282.56;5128091;27;20289;-63
2022/01/26 12:43:38;;;;;;;11.03;5.27;;;;;;;3.57;70.21;102270.91;5095166;28;20214;-63
2022/01/26 12:46:08;;;;;;;11.70;5.30;;;;;;;3.56;70.34;102275.28;5113119;27;20769;-63
2022/01/26 12:48:39;;;;;;;11.80;5.50;;;;;;;3.80;69.72;102276.09;5113928;27;20208;-63
2022/01/26 12:51:08;;;;;;;10.93;4.97;;;;;;;3.76;69.08;102271.91;5112452;27;20217;-61
2022/01/26 12:53:38;;;;;;;10.53;5.03;;;;;;;3.91;68.89;102276.53;5113557;28;20293;-63
2022/01/26 12:56:08;;;;;;;11.43;5.87;;;;;;;4.06;68.73;102278.53;5113119;28;20561;-63
2022/01/26 12:58:38;;;;;;;14.37;6.43;;;;;;;3.94;69.38;102276.41;5115305;28;20288;-62
2022/01/26 13:01:07;;;;;;;12.97;6.40;;;;;;;3.97;69.29;102281.50;5104224;28;20244;-62
2022/01/26 13:03:37;;;;;;;13.50;6.33;;;;;;;4.14;69.14;102296.56;5103083;28;20592;-63
2022/01/26 13:06:13;;;;;;;12.73;6.87;;;;;;;3.87;69.08;102289.84;5113979;28;20751;-62
2022/01/26 13:08:43;;;;;;;11.53;6.63;;;;;;;3.72;70.23;102286.88;5095487;28;20593;-62
2022/01/26 13:11:11;;;;;;;10.77;6.23;;;;;;;3.79;69.96;102292.75;5113518;27;20205;-62
2022/01/26 13:13:39;;;;;;;12.70;6.20;;;;;;;4.05;69.10;102287.31;5111531;27;20588;-62
2022/01/26 13:16:19;;;;;;;12.53;6.13;;;;;;;3.72;69.50;102296.53;5115424;27;20750;-62
2022/01/26 13:19:09;;;;;;;10.27;6.33;;;;;;;3.66;69.58;102291.53;5122595;27;20209;-63
2022/01/26 13:22:04;;;;;;;13.53;6.50;;;;;;;3.97;69.09;102284.13;5111697;28;20296;-64
2022/01/26 13:27:35;;;;;;;12.70;6.30;;;;;;;4.26;68.09;102282.97;5087668;28;20221;-63
2022/01/26 13:30:34;;;;;;;12.23;6.53;;;;;;;4.29;67.78;102288.09;5113622;27;20277;-64